createdAt,value
2018-05-12T00:04:19.797Z,32.95
2018-05-12T00:09:23.508Z,16.62
2018-05-12T00:14:27.336Z,17.20
2018-05-12T00:19:31.482Z,16.45
2018-05-12T00:24:34.732Z,19.60
2018-05-12T00:29:38.036Z,21.85
2018-05-12T00:34:41.368Z,22.67
2018-05-12T00:39:45.098Z,17.27
2018-05-12T00:44:51.889Z,21.55
2018-05-12T00:49:56.511Z,21.33
2018-05-12T00:54:59.744Z,22.92
2018-05-12T01:00:02.979Z,24.27
2018-05-12T01:05:06.396Z,25.87
2018-05-12T01:10:09.641Z,24.50
2018-05-12T01:15:12.886Z,24.17
2018-05-12T01:20:20.733Z,23.67
2018-05-12T01:25:23.959Z,24.17
2018-05-12T01:30:27.212Z,27.75
2018-05-12T01:35:30.443Z,27.08
2018-05-12T01:40:33.808Z,20.10
2018-05-12T01:45:37.200Z,25.65
2018-05-12T01:50:40.837Z,26.40
2018-05-12T01:55:44.100Z,26.60
2018-05-12T02:00:48.528Z,25.37
2018-05-12T02:05:51.807Z,29.13
2018-05-12T02:10:55.044Z,25.53
2018-05-12T02:15:58.390Z,22.27
2018-05-12T02:21:02.947Z,23.27
2018-05-12T02:26:06.217Z,30.87
2018-05-12T02:31:09.587Z,28.57
2018-05-12T02:36:12.810Z,28.40
2018-05-12T02:41:22.504Z,34.42
2018-05-12T02:46:26.177Z,29.83
2018-05-12T02:51:32.048Z,29.37
2018-05-12T02:56:35.301Z,26.73
2018-05-12T03:01:40.104Z,30.03
2018-05-12T03:06:43.516Z,26.50
2018-05-12T03:11:46.839Z,28.93
2018-05-12T03:16:50.072Z,30.33
2018-05-12T03:21:53.366Z,27.60
2018-05-12T03:26:57.009Z,25.83
2018-05-12T03:32:00.290Z,30.40
2018-05-12T03:37:03.931Z,29.03
2018-05-12T03:42:07.197Z,30.03
2018-05-12T03:47:10.836Z,34.67
2018-05-12T03:52:14.056Z,39.50
2018-05-12T03:57:17.321Z,28.03
2018-05-12T04:02:20.543Z,34.27
2018-05-12T04:07:36.136Z,39.53
2018-05-12T04:12:41.570Z,42.90
2018-05-12T04:17:44.803Z,44.70
2018-05-12T04:22:48.436Z,44.83
2018-05-12T04:27:51.685Z,41.20
2018-05-12T04:32:54.956Z,38.20
2018-05-12T04:37:58.235Z,43.27
2018-05-12T04:43:01.856Z,47.87
2018-05-12T04:48:05.479Z,37.40
2018-05-12T04:53:09.107Z,35.13
2018-05-12T04:58:12.500Z,39.40
2018-05-12T05:03:15.730Z,37.97
2018-05-12T05:08:19.038Z,36.13
2018-05-12T05:13:22.224Z,35.05
2018-05-12T05:18:25.580Z,37.17
2018-05-12T05:23:28.819Z,36.47
2018-05-12T05:28:32.461Z,33.20
2018-05-12T05:33:35.682Z,37.03
2018-05-12T05:38:38.915Z,36.53
2018-05-12T05:43:42.190Z,33.75
2018-05-12T05:48:45.483Z,37.45
2018-05-12T05:53:48.731Z,33.28
2018-05-12T05:58:52.042Z,34.55
2018-05-12T06:03:55.491Z,34.95
2018-05-12T06:08:59.206Z,37.70
2018-05-12T06:14:02.910Z,32.95
2018-05-12T06:19:07.226Z,35.92
2018-05-12T06:24:10.461Z,31.37
2018-05-12T06:29:14.484Z,31.52
2018-05-12T06:34:18.132Z,30.92
2018-05-12T06:39:21.822Z,32.25
2018-05-12T06:44:25.086Z,27.42
2018-05-12T06:49:28.363Z,25.35
2018-05-12T06:54:31.592Z,25.77
2018-05-12T06:59:34.855Z,28.67
2018-05-12T07:04:38.087Z,26.12
2018-05-12T07:09:41.328Z,28.95
2018-05-12T07:14:44.574Z,23.40
2018-05-12T07:19:47.810Z,29.80
2018-05-12T07:24:51.073Z,29.30
2018-05-12T07:29:54.715Z,27.10
2018-05-12T07:34:57.965Z,28.38
2018-05-12T07:40:01.215Z,28.40
2018-05-12T07:45:04.671Z,27.50
2018-05-12T07:50:07.887Z,26.42
2018-05-12T07:55:11.751Z,26.37
2018-05-12T08:00:14.994Z,26.48
2018-05-12T08:05:18.545Z,29.35
2018-05-12T08:10:22.754Z,26.62
2018-05-12T08:15:25.993Z,25.80
2018-05-12T08:20:29.226Z,28.87
2018-05-12T08:25:32.493Z,27.95
2018-05-12T08:30:36.133Z,23.05
2018-05-12T08:35:39.384Z,23.52
2018-05-12T08:40:42.617Z,27.85
2018-05-12T08:45:46.055Z,25.77
2018-05-12T08:50:49.289Z,24.50
2018-05-12T08:55:52.827Z,26.20
2018-05-12T09:00:56.067Z,24.25
2018-05-12T09:05:59.749Z,25.37
2018-05-12T09:11:03.184Z,23.67
2018-05-12T09:16:06.833Z,23.67
2018-05-12T09:21:10.072Z,24.37
2018-05-12T09:26:13.306Z,24.55
2018-05-12T09:31:16.539Z,20.80
2018-05-12T09:36:19.769Z,20.15
2018-05-12T09:41:23.007Z,19.73
2018-05-12T09:46:26.290Z,21.60
2018-05-12T09:51:29.878Z,22.35
2018-05-12T09:56:33.136Z,22.08
2018-05-12T10:01:36.898Z,21.17
2018-05-12T10:06:41.722Z,19.95
2018-05-12T10:11:45.192Z,19.08
2018-05-12T10:16:48.644Z,21.33
2018-05-12T10:21:52.058Z,22.90
2018-05-12T10:26:55.361Z,17.23
2018-05-12T10:31:58.986Z,20.25
2018-05-12T10:37:02.785Z,13.57
2018-05-12T10:42:06.386Z,17.02
2018-05-12T10:47:09.631Z,14.55
2018-05-12T10:52:12.859Z,7.45
2018-05-12T10:57:17.527Z,5.55
2018-05-12T11:02:20.742Z,9.20
2018-05-12T11:07:23.969Z,9.40
2018-05-12T11:12:27.694Z,10.48
2018-05-12T11:17:31.398Z,9.23
2018-05-12T11:22:35.196Z,7.22
2018-05-12T11:27:38.422Z,7.82
2018-05-12T11:32:42.151Z,8.30
2018-05-12T11:37:45.945Z,6.93
2018-05-12T11:42:49.961Z,9.60
2018-05-12T11:47:54.255Z,7.28
2018-05-12T11:52:57.507Z,7.15
2018-05-12T11:58:01.144Z,6.07
2018-05-12T12:03:04.774Z,5.47
2018-05-12T12:08:08.017Z,5.72
2018-05-12T12:13:11.241Z,6.20
2018-05-12T12:18:14.464Z,6.03
2018-05-12T12:23:18.036Z,5.78
2018-05-12T12:28:21.247Z,4.72
2018-05-12T12:33:24.510Z,5.12
2018-05-12T12:38:27.907Z,9.95
2018-05-12T12:43:31.879Z,7.90
2018-05-12T12:48:35.100Z,8.93
2018-05-12T12:53:38.461Z,7.25
2018-05-12T12:58:42.108Z,6.87
2018-05-12T13:03:45.324Z,7.18
2018-05-12T13:08:49.801Z,6.07
2018-05-12T13:13:53.012Z,5.07
2018-05-12T13:18:57.013Z,5.62
2018-05-12T13:24:00.637Z,4.82
2018-05-12T13:29:03.888Z,3.95
2018-05-12T13:34:07.162Z,5.75
2018-05-12T13:39:10.783Z,4.00
2018-05-12T13:44:14.403Z,3.05
2018-05-12T13:49:18.010Z,5.10
2018-05-12T13:54:21.616Z,2.65
2018-05-12T13:59:24.860Z,4.72
2018-05-12T14:04:28.087Z,2.90
2018-05-12T14:09:31.317Z,2.55
2018-05-12T14:14:34.844Z,2.03
2018-05-12T14:19:38.100Z,3.03
2018-05-12T14:24:41.332Z,2.20
2018-05-12T14:29:44.552Z,2.35
2018-05-12T14:34:47.768Z,3.62
2018-05-12T14:39:50.982Z,1.87
2018-05-12T14:44:54.639Z,2.00
2018-05-12T14:49:58.075Z,2.72
2018-05-12T14:55:01.407Z,2.22
2018-05-12T15:00:04.716Z,2.92
2018-05-12T15:05:10.320Z,2.17
2018-05-12T15:10:14.327Z,8.90
2018-05-12T15:15:18.052Z,2.10
2018-05-12T15:20:21.277Z,1.80
2018-05-12T15:25:24.727Z,2.00
2018-05-12T15:30:27.941Z,4.75
2018-05-12T15:35:31.177Z,3.78
2018-05-12T15:40:34.457Z,3.08
2018-05-12T15:45:38.092Z,3.78
2018-05-12T15:50:41.376Z,2.10
2018-05-12T15:55:45.011Z,2.28
2018-05-12T16:00:48.256Z,3.72
2018-05-12T16:05:52.303Z,2.75
2018-05-12T16:10:55.843Z,4.15
2018-05-12T16:15:59.177Z,2.65
2018-05-12T16:21:02.454Z,3.00
2018-05-12T16:26:06.067Z,2.00
2018-05-12T16:31:09.855Z,2.60
2018-05-12T16:36:13.074Z,2.35
2018-05-12T16:41:16.295Z,2.30
2018-05-12T16:46:19.910Z,4.10
2018-05-12T16:51:24.236Z,2.10
2018-05-12T16:56:27.452Z,4.15
2018-05-12T17:01:31.157Z,3.35
2018-05-12T17:06:34.472Z,5.35
2018-05-12T17:11:37.637Z,4.22
2018-05-12T17:16:41.075Z,2.85
2018-05-12T17:21:44.801Z,3.80
2018-05-12T17:26:48.453Z,2.37
2018-05-12T17:31:51.981Z,3.35
2018-05-12T17:36:55.207Z,3.17
2018-05-12T17:41:58.448Z,3.40
2018-05-12T17:47:02.071Z,2.72
2018-05-12T17:52:05.689Z,4.93
2018-05-12T17:57:08.925Z,5.90
2018-05-12T18:02:12.177Z,4.85
2018-05-12T18:07:15.803Z,4.47
2018-05-12T18:12:19.421Z,2.65
2018-05-12T18:17:23.821Z,2.80
2018-05-12T18:22:27.016Z,3.05
2018-05-12T18:27:30.263Z,3.87
2018-05-12T18:32:33.880Z,3.30
2018-05-12T18:37:37.495Z,3.72
2018-05-12T18:42:41.124Z,2.60
2018-05-12T18:47:44.339Z,3.65
2018-05-12T18:52:47.555Z,2.83
2018-05-12T18:57:50.784Z,3.03
2018-05-12T19:02:55.046Z,3.62
2018-05-12T19:07:58.292Z,2.90
2018-05-12T19:13:01.964Z,3.95
2018-05-12T19:18:05.597Z,3.65
2018-05-12T19:23:09.223Z,5.20
2018-05-12T19:28:12.460Z,4.37
2018-05-12T19:33:15.680Z,3.37
2018-05-12T19:38:18.912Z,3.40
2018-05-12T19:43:22.534Z,3.10
2018-05-12T19:48:26.143Z,2.95
2018-05-12T19:53:29.361Z,4.28
2018-05-12T19:58:33.064Z,3.53
2018-05-12T20:03:36.307Z,3.00
2018-05-12T20:08:39.535Z,3.60
2018-05-12T20:13:42.761Z,4.50
2018-05-12T20:18:45.994Z,3.65
2018-05-12T20:23:49.616Z,3.00
2018-05-12T20:28:53.230Z,5.65
2018-05-12T20:33:56.838Z,6.03
2018-05-12T20:39:00.471Z,4.68
2018-05-12T20:44:03.727Z,4.30
2018-05-12T20:49:06.968Z,3.78
2018-05-12T20:54:10.580Z,3.28
2018-05-12T20:59:14.215Z,4.28
2018-05-12T21:04:17.721Z,5.05
2018-05-12T21:09:21.945Z,4.20
2018-05-12T21:14:25.696Z,4.97
2018-05-12T21:19:28.924Z,6.10
2018-05-12T21:24:32.259Z,4.32
2018-05-12T21:29:35.565Z,4.07
2018-05-12T21:34:38.774Z,4.60
2018-05-12T21:39:42.088Z,3.80
2018-05-12T21:44:45.900Z,6.05
2018-05-12T21:49:49.302Z,4.40
2018-05-12T21:54:52.557Z,4.82
2018-05-12T21:59:55.839Z,4.37
2018-05-12T22:04:59.446Z,4.22
2018-05-12T22:10:03.077Z,4.07
2018-05-12T22:15:07.031Z,4.68
2018-05-12T22:20:10.382Z,5.95
2018-05-12T22:25:13.602Z,5.55
2018-05-12T22:30:17.212Z,4.00
2018-05-12T22:35:20.906Z,4.78
2018-05-12T22:40:24.971Z,4.90
2018-05-12T22:45:28.189Z,4.65
2018-05-12T22:50:32.075Z,4.93
2018-05-12T22:55:35.333Z,4.40
2018-05-12T23:00:38.559Z,4.25
2018-05-12T23:05:41.788Z,3.97
2018-05-12T23:10:45.107Z,4.82
2018-05-12T23:15:48.739Z,4.82
2018-05-12T23:20:51.981Z,10.77
2018-05-12T23:25:56.184Z,7.95
2018-05-12T23:30:59.527Z,7.12
2018-05-12T23:36:03.434Z,6.28
2018-05-12T23:41:06.669Z,6.22
2018-05-12T23:46:11.003Z,5.07
2018-05-12T23:51:14.517Z,5.82
2018-05-12T23:56:17.707Z,5.25
